createdAt,value
2019-04-30T00:00:22.850Z,4.00
2019-04-30T00:01:22.831Z,4.00
2019-04-30T00:02:22.818Z,4.00
2019-04-30T00:03:22.791Z,4.00
2019-04-30T00:04:22.769Z,4.00
2019-04-30T00:05:22.752Z,4.00
2019-04-30T00:06:28.219Z,4.00
2019-04-30T00:07:22.717Z,4.00
2019-04-30T00:08:22.694Z,4.00
2019-04-30T00:09:22.666Z,4.00
2019-04-30T00:10:22.646Z,4.00
2019-04-30T00:11:22.627Z,4.00
2019-04-30T00:12:22.605Z,4.00
2019-04-30T00:13:22.634Z,4.00
2019-04-30T00:14:22.562Z,4.00
2019-04-30T00:15:22.544Z,4.00
2019-04-30T00:16:22.523Z,4.00
2019-04-30T00:17:22.502Z,4.00
2019-04-30T00:18:22.481Z,4.00
2019-04-30T00:19:22.461Z,4.00
2019-04-30T00:20:22.440Z,4.00
2019-04-30T00:21:22.419Z,4.00
2019-04-30T00:22:33.053Z,4.00
2019-04-30T00:23:22.729Z,4.00
2019-04-30T00:24:22.359Z,4.00
2019-04-30T00:25:26.914Z,4.00
2019-04-30T00:26:22.316Z,4.00
2019-04-30T00:27:26.348Z,4.00
2019-04-30T00:28:22.274Z,4.00
2019-04-30T00:29:26.954Z,4.00
2019-04-30T00:30:22.234Z,4.00
2019-04-30T00:31:23.734Z,4.00
2019-04-30T00:32:22.195Z,4.00
2019-04-30T00:33:25.085Z,4.00
2019-04-30T00:34:22.152Z,4.00
2019-04-30T00:35:22.140Z,4.00
2019-04-30T00:36:22.128Z,4.00
2019-04-30T00:37:22.093Z,4.00
2019-04-30T00:38:22.072Z,4.00
2019-04-30T00:39:22.072Z,4.00
2019-04-30T00:40:26.658Z,4.00
2019-04-30T00:41:22.008Z,4.00
2019-04-30T00:42:24.479Z,4.00
2019-04-30T00:43:21.967Z,4.00
2019-04-30T00:44:24.839Z,4.00
2019-04-30T00:45:21.932Z,4.00
2019-04-30T00:46:25.001Z,4.00
2019-04-30T00:47:21.884Z,4.00
2019-04-30T00:48:29.528Z,4.00
2019-04-30T00:49:23.344Z,4.00
2019-04-30T00:50:21.823Z,4.00
2019-04-30T00:51:21.805Z,4.00
2019-04-30T00:52:21.784Z,4.00
2019-04-30T00:53:21.761Z,4.00
2019-04-30T00:54:22.559Z,4.00
2019-04-30T00:55:21.721Z,4.00
2019-04-30T00:56:24.766Z,4.00
2019-04-30T00:57:21.678Z,4.00
2019-04-30T00:58:28.956Z,4.00
2019-04-30T00:59:21.638Z,4.00
2019-04-30T01:00:28.167Z,4.00
2019-04-30T01:01:21.596Z,4.00
2019-04-30T01:02:30.445Z,4.00
2019-04-30T01:03:21.556Z,4.00
2019-04-30T01:04:26.644Z,4.00
2019-04-30T01:05:21.517Z,4.00
2019-04-30T01:06:26.849Z,4.00
2019-04-30T01:07:21.471Z,4.00
2019-04-30T01:08:27.183Z,4.00
2019-04-30T01:09:21.431Z,4.00
2019-04-30T01:10:24.742Z,4.00
2019-04-30T01:11:21.389Z,4.00
2019-04-30T01:12:27.595Z,4.00
2019-04-30T01:13:21.358Z,4.00
2019-04-30T01:14:23.253Z,4.00
2019-04-30T01:15:21.319Z,4.00
2019-04-30T01:16:23.586Z,4.00
2019-04-30T01:17:21.266Z,4.00
2019-04-30T01:18:23.577Z,4.00
2019-04-30T01:19:29.920Z,4.00
2019-04-30T01:20:24.174Z,4.00
2019-04-30T01:21:21.336Z,4.00
2019-04-30T01:22:27.753Z,4.00
2019-04-30T01:23:21.148Z,4.00
2019-04-30T01:24:23.468Z,4.00
2019-04-30T01:25:21.105Z,4.00
2019-04-30T01:26:22.817Z,4.00
2019-04-30T01:27:21.111Z,4.00
2019-04-30T01:28:24.273Z,4.00
2019-04-30T01:29:21.020Z,4.00
2019-04-30T01:30:22.734Z,4.00
2019-04-30T01:31:21.148Z,4.00
2019-04-30T01:32:21.312Z,4.00
2019-04-30T01:33:20.934Z,4.00
2019-04-30T01:34:20.910Z,4.00
2019-04-30T01:35:23.806Z,4.00
2019-04-30T01:36:20.874Z,4.00
2019-04-30T01:37:28.308Z,4.00
2019-04-30T01:38:20.830Z,4.00
2019-04-30T01:39:23.657Z,4.00
2019-04-30T01:40:20.790Z,4.00
2019-04-30T01:41:27.462Z,4.00
2019-04-30T01:42:20.746Z,4.00
2019-04-30T01:43:30.039Z,4.00
2019-04-30T01:44:20.703Z,4.00
2019-04-30T01:45:23.210Z,4.00
2019-04-30T01:46:21.025Z,4.00
2019-04-30T01:47:21.541Z,4.00
2019-04-30T01:48:20.629Z,4.00
2019-04-30T01:49:25.630Z,4.00
2019-04-30T01:50:20.585Z,4.00
2019-04-30T01:51:21.875Z,4.00
2019-04-30T01:52:20.536Z,4.00
2019-04-30T01:53:20.518Z,4.00
2019-04-30T01:54:24.025Z,4.00
2019-04-30T01:55:20.474Z,4.00
2019-04-30T01:56:20.453Z,4.00
2019-04-30T01:57:20.433Z,4.00
2019-04-30T01:58:20.412Z,4.00
2019-04-30T01:59:20.392Z,4.00
2019-04-30T02:00:20.378Z,4.00
2019-04-30T02:01:20.351Z,4.00
2019-04-30T02:02:20.329Z,4.00
2019-04-30T02:03:20.310Z,4.00
2019-04-30T02:04:20.290Z,4.00
2019-04-30T02:05:20.267Z,4.00
2019-04-30T02:06:20.251Z,4.00
2019-04-30T02:07:20.233Z,4.00
2019-04-30T02:08:20.207Z,4.00
2019-04-30T02:09:20.719Z,4.00
2019-04-30T02:10:20.165Z,4.00
2019-04-30T02:11:20.143Z,4.00
2019-04-30T02:12:21.887Z,4.00
2019-04-30T02:13:20.111Z,4.00
2019-04-30T02:14:20.081Z,4.00
2019-04-30T02:15:20.076Z,4.00
2019-04-30T02:16:21.169Z,4.00
2019-04-30T02:17:20.019Z,4.00
2019-04-30T02:18:19.997Z,4.00
2019-04-30T02:19:19.979Z,4.00
2019-04-30T02:20:19.956Z,4.00
2019-04-30T02:21:19.936Z,4.00
2019-04-30T02:22:19.923Z,4.00
2019-04-30T02:23:19.892Z,4.00
2019-04-30T02:24:19.873Z,4.00
2019-04-30T02:25:19.855Z,4.00
2019-04-30T02:26:19.829Z,4.00
2019-04-30T02:27:21.664Z,4.00
2019-04-30T02:28:19.787Z,4.00
2019-04-30T02:29:19.767Z,4.00
2019-04-30T02:30:20.908Z,4.00
2019-04-30T02:31:22.984Z,4.00
2019-04-30T02:32:20.801Z,4.00
2019-04-30T02:33:20.151Z,4.00
2019-04-30T02:34:22.089Z,4.00
2019-04-30T02:35:19.652Z,4.00
2019-04-30T02:36:19.894Z,4.00
2019-04-30T02:37:21.037Z,4.00
2019-04-30T02:38:20.328Z,4.00
2019-04-30T02:39:20.384Z,4.00
2019-04-30T02:40:20.214Z,4.00
2019-04-30T02:41:19.517Z,4.00
2019-04-30T02:42:20.166Z,4.00
2019-04-30T02:43:20.404Z,4.00
2019-04-30T02:44:19.697Z,4.00
2019-04-30T02:45:19.883Z,4.00
2019-04-30T02:46:19.411Z,4.00
2019-04-30T02:47:20.254Z,4.00
2019-04-30T02:48:19.521Z,4.00
2019-04-30T02:49:20.470Z,4.00
2019-04-30T02:50:22.479Z,4.00
2019-04-30T02:51:20.084Z,4.00
2019-04-30T02:52:19.648Z,4.00
2019-04-30T02:53:19.921Z,4.00
2019-04-30T02:54:22.930Z,4.00
2019-04-30T02:55:19.503Z,4.00
2019-04-30T02:56:20.227Z,4.00
2019-04-30T02:57:22.850Z,4.00
2019-04-30T02:58:21.019Z,4.00
2019-04-30T02:59:20.225Z,4.00
2019-04-30T03:00:20.565Z,4.00
2019-04-30T03:01:20.249Z,4.00
2019-04-30T03:02:19.575Z,4.00
2019-04-30T03:03:20.413Z,4.00
2019-04-30T03:04:19.662Z,4.00
2019-04-30T03:05:20.289Z,4.00
2019-04-30T03:06:20.428Z,4.00
2019-04-30T03:07:19.444Z,4.00
2019-04-30T03:08:19.863Z,4.00
2019-04-30T03:09:20.174Z,4.00
2019-04-30T03:10:19.824Z,4.00
2019-04-30T03:11:20.613Z,4.00
2019-04-30T03:12:20.311Z,4.00
2019-04-30T03:13:20.147Z,4.00
2019-04-30T03:14:20.230Z,4.00
2019-04-30T03:15:19.479Z,4.00
2019-04-30T03:16:20.787Z,4.00
2019-04-30T03:17:20.906Z,4.00
2019-04-30T03:18:19.593Z,8.00
2019-04-30T03:19:19.639Z,8.00
2019-04-30T03:20:31.353Z,8.00
2019-04-30T03:21:19.138Z,8.00
2019-04-30T03:22:20.333Z,4.00
2019-04-30T03:23:19.545Z,4.00
2019-04-30T03:24:20.174Z,4.00
2019-04-30T03:25:19.285Z,4.00
2019-04-30T03:26:20.038Z,4.00
2019-04-30T03:27:20.633Z,4.00
2019-04-30T03:28:20.177Z,4.00
2019-04-30T03:29:23.381Z,8.00
2019-04-30T03:30:21.788Z,8.00
2019-04-30T03:31:22.370Z,4.00
2019-04-30T03:32:22.235Z,4.00
2019-04-30T03:33:22.919Z,8.00
2019-04-30T03:34:25.161Z,8.00
2019-04-30T03:35:22.538Z,8.00
2019-04-30T03:36:21.604Z,8.00
2019-04-30T03:37:19.813Z,8.00
2019-04-30T03:38:20.377Z,8.00
2019-04-30T03:39:19.898Z,12.00
2019-04-30T03:40:20.250Z,16.00
2019-04-30T03:41:19.819Z,16.00
2019-04-30T03:42:19.901Z,20.00
2019-04-30T03:43:20.152Z,20.00
2019-04-30T03:44:22.566Z,20.00
2019-04-30T03:45:20.429Z,28.00
2019-04-30T03:46:19.469Z,32.00
2019-04-30T03:47:20.229Z,32.00
2019-04-30T03:48:19.978Z,36.00
2019-04-30T03:49:20.316Z,44.00
2019-04-30T03:50:19.831Z,48.00
2019-04-30T03:51:19.897Z,60.00
2019-04-30T03:52:19.703Z,68.00
2019-04-30T03:53:20.230Z,76.00
2019-04-30T03:54:19.307Z,84.00
2019-04-30T03:55:20.359Z,92.00
2019-04-30T03:56:22.427Z,104.00
2019-04-30T03:57:20.319Z,116.00
2019-04-30T03:58:21.284Z,132.00
2019-04-30T03:59:19.916Z,148.00
2019-04-30T04:00:20.190Z,160.00
2019-04-30T04:01:19.666Z,176.00
2019-04-30T04:02:20.572Z,192.00
2019-04-30T04:03:20.124Z,208.00
2019-04-30T04:04:20.046Z,232.00
2019-04-30T04:05:20.022Z,256.00
2019-04-30T04:06:21.212Z,284.00
2019-04-30T04:07:20.087Z,304.00
2019-04-30T04:08:19.577Z,324.00
2019-04-30T04:09:21.985Z,352.00
2019-04-30T04:10:19.544Z,372.00
2019-04-30T04:11:19.942Z,400.00
2019-04-30T04:12:20.525Z,428.00
2019-04-30T04:13:19.751Z,456.00
2019-04-30T04:14:19.693Z,488.00
2019-04-30T04:15:19.777Z,516.00
2019-04-30T04:16:19.495Z,548.00
2019-04-30T04:17:20.077Z,588.00
2019-04-30T04:18:20.005Z,624.00
2019-04-30T04:19:19.670Z,664.00
2019-04-30T04:20:20.049Z,704.00
2019-04-30T04:21:20.430Z,744.00
2019-04-30T04:22:20.321Z,784.00
2019-04-30T04:23:19.281Z,828.00
2019-04-30T04:24:17.321Z,868.00
2019-04-30T04:25:20.445Z,916.00
2019-04-30T04:26:20.065Z,972.00
2019-04-30T04:27:19.447Z,1052.00
2019-04-30T04:28:20.076Z,1156.00
2019-04-30T04:29:19.569Z,1220.00
2019-04-30T04:30:20.053Z,1212.00
2019-04-30T04:31:19.275Z,1196.00
2019-04-30T04:32:17.147Z,1240.00
2019-04-30T04:33:19.747Z,1300.00
2019-04-30T04:34:19.710Z,1348.00
2019-04-30T04:35:19.508Z,1320.00
2019-04-30T04:36:17.059Z,1308.00
2019-04-30T04:37:19.172Z,1356.00
2019-04-30T04:38:17.016Z,1412.00
2019-04-30T04:39:19.880Z,1412.00
2019-04-30T04:40:16.973Z,1448.00
2019-04-30T04:41:19.597Z,1472.00
2019-04-30T04:42:19.135Z,1484.00
2019-04-30T04:43:16.917Z,1444.00
2019-04-30T04:44:19.677Z,1516.00
2019-04-30T04:45:19.590Z,1644.00
2019-04-30T04:46:16.844Z,1708.00
2019-04-30T04:47:19.476Z,1780.00
2019-04-30T04:48:19.782Z,1724.00
2019-04-30T04:49:16.778Z,1584.00
2019-04-30T04:50:16.755Z,1528.00
2019-04-30T04:51:31.413Z,1564.00
2019-04-30T04:52:16.716Z,1668.00
2019-04-30T04:53:19.321Z,1776.00
2019-04-30T04:54:16.673Z,1648.00
2019-04-30T04:55:16.650Z,1620.00
2019-04-30T04:56:18.954Z,1828.00
2019-04-30T04:57:19.556Z,1888.00
2019-04-30T04:58:16.588Z,1980.00
2019-04-30T04:59:16.564Z,2284.00
2019-04-30T05:00:16.542Z,2528.00
2019-04-30T05:01:16.527Z,2584.00
2019-04-30T05:02:16.524Z,2596.00
2019-04-30T05:03:16.485Z,2712.00
2019-04-30T05:04:16.455Z,2816.00
2019-04-30T05:05:16.440Z,2824.00
2019-04-30T05:06:16.411Z,2972.00
2019-04-30T05:07:16.391Z,3252.00
2019-04-30T05:08:16.384Z,3444.00
2019-04-30T05:09:16.353Z,3104.00
2019-04-30T05:10:16.327Z,2740.00
2019-04-30T05:11:16.304Z,2420.00
2019-04-30T05:12:16.285Z,2280.00
2019-04-30T05:13:16.261Z,2476.00
2019-04-30T05:14:16.241Z,2724.00
2019-04-30T05:15:16.220Z,3080.00
2019-04-30T05:16:16.210Z,3592.00
2019-04-30T05:17:16.181Z,4044.00
2019-04-30T05:18:16.307Z,4096.00
2019-04-30T05:19:16.135Z,4188.00
2019-04-30T05:20:16.115Z,4192.00
2019-04-30T05:21:16.095Z,3756.00
2019-04-30T05:22:16.088Z,3924.00
2019-04-30T05:23:16.049Z,4308.00
2019-04-30T05:24:16.028Z,4652.00
2019-04-30T05:25:16.008Z,4316.00
2019-04-30T05:26:15.985Z,4888.00
2019-04-30T05:27:15.965Z,5160.00
2019-04-30T05:28:15.946Z,5184.00
2019-04-30T05:29:15.930Z,4852.00
2019-04-30T05:30:15.909Z,5284.00
2019-04-30T05:31:15.881Z,6280.00
2019-04-30T05:32:15.885Z,14112.00
2019-04-30T05:33:15.840Z,6236.00
2019-04-30T05:34:15.819Z,6248.00
2019-04-30T05:35:15.798Z,8480.00
2019-04-30T05:36:15.785Z,8900.00
2019-04-30T05:37:15.767Z,8904.00
2019-04-30T05:38:15.745Z,4740.00
2019-04-30T05:39:15.738Z,4752.00
2019-04-30T05:40:15.705Z,4808.00
2019-04-30T05:41:15.676Z,5540.00
2019-04-30T05:42:15.654Z,6092.00
2019-04-30T05:43:15.634Z,5160.00
2019-04-30T05:44:15.617Z,5008.00
2019-04-30T05:45:15.599Z,5936.00
2019-04-30T05:46:15.579Z,6224.00
2019-04-30T05:47:15.555Z,5856.00
2019-04-30T05:48:15.537Z,6212.00
2019-04-30T05:49:15.523Z,6292.00
2019-04-30T05:50:15.510Z,5784.00
2019-04-30T05:51:15.472Z,6368.00
2019-04-30T05:52:15.455Z,5860.00
2019-04-30T05:53:15.444Z,6000.00
2019-04-30T05:54:15.462Z,6944.00
2019-04-30T05:55:15.400Z,7640.00
2019-04-30T05:56:15.388Z,7828.00
2019-04-30T05:57:15.358Z,8712.00
2019-04-30T05:58:15.332Z,6884.00
2019-04-30T05:59:15.312Z,7516.00
2019-04-30T06:00:15.301Z,8088.00
2019-04-30T06:01:15.275Z,7472.00
2019-04-30T06:02:15.260Z,6864.00
2019-04-30T06:03:25.120Z,6368.00
2019-04-30T06:04:15.218Z,6028.00
2019-04-30T06:05:15.194Z,6028.00
2019-04-30T06:06:15.172Z,5920.00
2019-04-30T06:07:15.160Z,6108.00
2019-04-30T06:08:15.134Z,6112.00
2019-04-30T06:09:28.946Z,6436.00
2019-04-30T06:10:15.093Z,7116.00
2019-04-30T06:11:15.074Z,8184.00
2019-04-30T06:12:15.052Z,8560.00
2019-04-30T06:13:15.164Z,10820.00
2019-04-30T06:14:15.021Z,6604.00
2019-04-30T06:15:14.993Z,7512.00
2019-04-30T06:16:14.974Z,8276.00
2019-04-30T06:17:14.980Z,7840.00
2019-04-30T06:18:14.934Z,6576.00
2019-04-30T06:19:14.921Z,5904.00
2019-04-30T06:20:18.376Z,5984.00
2019-04-30T06:21:14.872Z,6160.00
2019-04-30T06:22:14.858Z,5772.00
2019-04-30T06:23:14.833Z,5796.00
2019-04-30T06:24:14.864Z,6424.00
2019-04-30T06:25:27.186Z,6812.00
2019-04-30T06:26:14.773Z,7508.00
2019-04-30T06:27:14.753Z,7132.00
2019-04-30T06:28:14.733Z,7472.00
2019-04-30T06:29:14.716Z,9064.00
2019-04-30T06:30:14.693Z,9160.00
2019-04-30T06:31:14.675Z,8648.00
2019-04-30T06:32:14.655Z,9668.00
2019-04-30T06:33:14.636Z,10080.00
2019-04-30T06:34:14.633Z,8204.00
2019-04-30T06:35:14.595Z,7816.00
2019-04-30T06:36:14.574Z,7688.00
2019-04-30T06:37:14.567Z,8216.00
2019-04-30T06:38:14.533Z,8864.00
2019-04-30T06:39:14.519Z,9652.00
2019-04-30T06:40:14.504Z,9316.00
2019-04-30T06:41:14.475Z,7616.00
2019-04-30T06:42:14.469Z,7456.00
2019-04-30T06:43:14.449Z,8196.00
2019-04-30T06:44:14.424Z,8100.00
2019-04-30T06:45:14.405Z,8588.00
2019-04-30T06:46:14.376Z,8616.00
2019-04-30T06:47:14.361Z,7988.00
2019-04-30T06:48:14.338Z,9132.00
2019-04-30T06:49:14.320Z,10436.00
2019-04-30T06:50:14.299Z,10320.00
2019-04-30T06:51:14.282Z,10436.00
2019-04-30T06:52:20.523Z,11124.00
2019-04-30T06:53:14.260Z,11032.00
2019-04-30T06:54:14.225Z,11380.00
2019-04-30T06:55:14.202Z,12172.00
2019-04-30T06:56:14.208Z,12256.00
2019-04-30T06:57:14.170Z,12384.00
2019-04-30T06:58:15.565Z,12488.00
2019-04-30T06:59:14.125Z,12064.00
2019-04-30T07:00:14.104Z,10864.00
2019-04-30T07:01:14.087Z,11676.00
2019-04-30T07:02:14.076Z,13792.00
2019-04-30T07:03:14.046Z,15372.00
2019-04-30T07:04:14.027Z,14060.00
2019-04-30T07:05:14.005Z,13536.00
2019-04-30T07:06:13.995Z,14272.00
2019-04-30T07:07:14.331Z,14588.00
2019-04-30T07:08:13.977Z,15752.00
2019-04-30T07:09:13.931Z,15660.00
2019-04-30T07:10:16.843Z,17120.00
2019-04-30T07:11:13.900Z,15440.00
2019-04-30T07:12:25.537Z,16640.00
2019-04-30T07:13:13.866Z,17984.00
2019-04-30T07:14:13.856Z,17152.00
2019-04-30T07:15:13.864Z,17824.00
2019-04-30T07:16:13.850Z,18752.00
2019-04-30T07:17:13.784Z,17280.00
2019-04-30T07:18:13.761Z,15336.00
2019-04-30T07:19:13.744Z,13532.00
2019-04-30T07:20:13.727Z,12108.00
2019-04-30T07:21:13.707Z,13136.00
2019-04-30T07:22:13.688Z,15076.00
2019-04-30T07:23:13.670Z,14844.00
2019-04-30T07:24:13.724Z,13864.00
2019-04-30T07:25:13.633Z,14172.00
2019-04-30T07:26:18.356Z,15000.00
2019-04-30T07:27:13.604Z,14104.00
2019-04-30T07:28:13.582Z,14876.00
2019-04-30T07:29:13.577Z,10952.00
2019-04-30T07:30:13.543Z,12560.00
2019-04-30T07:31:14.859Z,11100.00
2019-04-30T07:32:13.508Z,13144.00
2019-04-30T07:33:13.488Z,15504.00
2019-04-30T07:34:13.517Z,17088.00
2019-04-30T07:35:13.451Z,19808.00
2019-04-30T07:36:13.435Z,21088.00
2019-04-30T07:37:20.552Z,26720.00
2019-04-30T07:38:13.405Z,31488.00
2019-04-30T07:39:13.382Z,36160.00
2019-04-30T07:40:13.363Z,48320.00
2019-04-30T07:41:13.350Z,23520.00
2019-04-30T07:42:13.330Z,28352.00
2019-04-30T07:43:13.314Z,28096.00
2019-04-30T07:44:30.173Z,23648.00
2019-04-30T07:45:13.276Z,21472.00
2019-04-30T07:46:13.260Z,22976.00
2019-04-30T07:47:13.269Z,21568.00
2019-04-30T07:48:13.227Z,19072.00
2019-04-30T07:49:13.210Z,18688.00
2019-04-30T07:50:13.670Z,21344.00
2019-04-30T07:51:13.713Z,20160.00
2019-04-30T07:52:13.975Z,16112.00
2019-04-30T07:53:13.539Z,13400.00
2019-04-30T07:54:13.129Z,12248.00
2019-04-30T07:55:13.111Z,12040.00
2019-04-30T07:56:25.637Z,12984.00
2019-04-30T07:57:13.136Z,14964.00
2019-04-30T07:58:13.074Z,15184.00
2019-04-30T07:59:13.054Z,15076.00
2019-04-30T08:00:13.042Z,15612.00
2019-04-30T08:01:13.017Z,17632.00
2019-04-30T08:02:14.848Z,15804.00
2019-04-30T08:03:13.380Z,15740.00
2019-04-30T08:04:12.978Z,17280.00
2019-04-30T08:05:12.953Z,17952.00
2019-04-30T08:06:12.992Z,18208.00
2019-04-30T08:07:12.978Z,17536.00
2019-04-30T08:08:20.930Z,18848.00
2019-04-30T08:09:12.894Z,16384.00
2019-04-30T08:10:12.887Z,16004.00
2019-04-30T08:11:22.959Z,17856.00
2019-04-30T08:12:21.761Z,23520.00
2019-04-30T08:13:15.104Z,22560.00
2019-04-30T08:14:12.803Z,31264.00
2019-04-30T08:15:12.789Z,20736.00
2019-04-30T08:16:12.774Z,16960.00
2019-04-30T08:17:12.762Z,27936.00
2019-04-30T08:18:12.734Z,17536.00
2019-04-30T08:19:12.718Z,15640.00
2019-04-30T08:20:15.639Z,14896.00
2019-04-30T08:21:12.695Z,15200.00
2019-04-30T08:22:12.669Z,30528.00
2019-04-30T08:23:17.348Z,29760.00
2019-04-30T08:24:12.653Z,24480.00
2019-04-30T08:25:12.621Z,17344.00
2019-04-30T08:26:12.612Z,30816.00
2019-04-30T08:27:12.597Z,13484.00
2019-04-30T08:28:12.573Z,15436.00
2019-04-30T08:29:12.557Z,14352.00
2019-04-30T08:30:21.294Z,14276.00
2019-04-30T08:31:12.525Z,14656.00
2019-04-30T08:32:12.513Z,14944.00
2019-04-30T08:33:12.505Z,15564.00
2019-04-30T08:34:12.475Z,17920.00
2019-04-30T08:35:12.460Z,20224.00
2019-04-30T08:36:12.443Z,22848.00
2019-04-30T08:37:17.475Z,20832.00
2019-04-30T08:38:12.411Z,22016.00
2019-04-30T08:39:12.393Z,22304.00
2019-04-30T08:40:12.382Z,21952.00
2019-04-30T08:41:12.365Z,19648.00
2019-04-30T08:42:12.349Z,16864.00
2019-04-30T08:43:12.329Z,13536.00
2019-04-30T08:44:12.323Z,17568.00
2019-04-30T08:45:12.297Z,21184.00
2019-04-30T08:46:12.289Z,18464.00
2019-04-30T08:47:12.270Z,19488.00
2019-04-30T08:48:12.248Z,16748.00
2019-04-30T08:49:12.465Z,21408.00
2019-04-30T08:50:12.294Z,21472.00
2019-04-30T08:51:13.928Z,17344.00
2019-04-30T08:52:12.222Z,18848.00
2019-04-30T08:53:12.186Z,18720.00
2019-04-30T08:54:12.150Z,18016.00
2019-04-30T08:55:16.596Z,14816.00
2019-04-30T08:56:12.130Z,15632.00
2019-04-30T08:57:12.113Z,18592.00
2019-04-30T08:58:14.943Z,18944.00
2019-04-30T08:59:12.070Z,19872.00
2019-04-30T09:00:14.953Z,25440.00
2019-04-30T09:01:12.038Z,17824.00
2019-04-30T09:02:16.104Z,17856.00
2019-04-30T09:03:12.018Z,17504.00
2019-04-30T09:04:11.988Z,44832.00
2019-04-30T09:05:11.974Z,47872.00
2019-04-30T09:06:11.956Z,69440.00
2019-04-30T09:07:11.955Z,72544.00
2019-04-30T09:08:11.943Z,75680.00
2019-04-30T09:09:11.911Z,79040.00
2019-04-30T09:10:11.919Z,75744.00
2019-04-30T09:11:22.464Z,27808.00
2019-04-30T09:12:11.865Z,21088.00
2019-04-30T09:13:11.869Z,79040.00
2019-04-30T09:14:11.837Z,36320.00
2019-04-30T09:15:56.194Z,17312.00
2019-04-30T09:16:56.181Z,23424.00
2019-04-30T09:18:03.342Z,16896.00
2019-04-30T09:18:56.153Z,27424.00
2019-04-30T09:19:56.138Z,76992.00
2019-04-30T09:21:04.194Z,31840.00
2019-04-30T09:21:56.110Z,72224.00
2019-04-30T09:22:56.095Z,16360.00
2019-04-30T09:23:56.089Z,20160.00
2019-04-30T09:24:56.069Z,14528.00
2019-04-30T09:25:56.055Z,14012.00
2019-04-30T09:26:56.041Z,44256.00
2019-04-30T09:27:56.026Z,20864.00
2019-04-30T09:28:56.019Z,31520.00
2019-04-30T09:29:55.995Z,16896.00
2019-04-30T09:30:55.983Z,22304.00
2019-04-30T09:31:55.968Z,20096.00
2019-04-30T09:32:55.954Z,19296.00
2019-04-30T09:33:57.960Z,20576.00
2019-04-30T09:34:55.931Z,48064.00
2019-04-30T09:35:55.910Z,47040.00
2019-04-30T09:36:55.905Z,35552.00
2019-04-30T09:38:01.132Z,75456.00
2019-04-30T09:39:01.326Z,64192.00
2019-04-30T09:39:59.378Z,37824.00
2019-04-30T09:40:55.842Z,38592.00
2019-04-30T09:41:55.829Z,85376.00
2019-04-30T09:42:55.815Z,79200.00
2019-04-30T09:43:55.801Z,78592.00
2019-04-30T09:44:57.250Z,84896.00
2019-04-30T09:45:55.779Z,80672.00
2019-04-30T09:46:55.859Z,78752.00
2019-04-30T09:47:55.767Z,82688.00
2019-04-30T09:48:55.742Z,93184.00
2019-04-30T09:49:55.737Z,88032.00
2019-04-30T09:50:55.986Z,83872.00
2019-04-30T09:51:55.706Z,85536.00
2019-04-30T09:52:55.696Z,84960.00
2019-04-30T09:53:59.762Z,80224.00
2019-04-30T09:54:55.719Z,77536.00
2019-04-30T09:55:55.667Z,76512.00
2019-04-30T09:56:55.659Z,72960.00
2019-04-30T09:57:55.649Z,67168.00
2019-04-30T09:58:55.652Z,68544.00
2019-04-30T09:59:55.643Z,75040.00
2019-04-30T10:00:55.629Z,75072.00
2019-04-30T10:01:55.624Z,71456.00
2019-04-30T10:02:55.690Z,75712.00
2019-04-30T10:03:56.067Z,82624.00
2019-04-30T10:04:56.059Z,88192.00
2019-04-30T10:05:55.593Z,83008.00
2019-04-30T10:06:55.593Z,78368.00
2019-04-30T10:07:55.579Z,84128.00
2019-04-30T10:08:55.576Z,86656.00
2019-04-30T10:09:55.572Z,85312.00
2019-04-30T10:10:55.664Z,85120.00
2019-04-30T10:11:55.969Z,87328.00
2019-04-30T10:12:55.549Z,93600.00
2019-04-30T10:13:55.543Z,95360.00
2019-04-30T10:14:55.544Z,88608.00
2019-04-30T10:15:55.534Z,81184.00
2019-04-30T10:16:55.534Z,78784.00
2019-04-30T10:17:55.532Z,77600.00
2019-04-30T10:19:54.638Z,81312.00
2019-04-30T10:20:54.625Z,75200.00
2019-04-30T10:21:54.628Z,75008.00
2019-04-30T10:22:54.625Z,82080.00
2019-04-30T10:23:54.617Z,89728.00
2019-04-30T10:24:54.621Z,91104.00
2019-04-30T10:25:54.606Z,90560.00
2019-04-30T10:26:54.615Z,92224.00
2019-04-30T10:27:54.606Z,95520.00
2019-04-30T10:28:54.605Z,93312.00
2019-04-30T10:29:54.601Z,89696.00
2019-04-30T10:30:54.590Z,93312.00
2019-04-30T10:32:29.824Z,98688.00
2019-04-30T10:32:54.590Z,95680.00
2019-04-30T10:33:54.578Z,87264.00
2019-04-30T10:34:54.583Z,79200.00
2019-04-30T10:35:54.573Z,72928.00
2019-04-30T10:36:54.569Z,70304.00
2019-04-30T10:37:54.567Z,70656.00
2019-04-30T10:38:54.565Z,71136.00
2019-04-30T10:39:54.577Z,73600.00
2019-04-30T10:40:54.558Z,73152.00
2019-04-30T10:41:54.556Z,70912.00
2019-04-30T10:42:54.559Z,73088.00
2019-04-30T10:43:54.550Z,75616.00
2019-04-30T10:46:40.162Z,75872.00
2019-04-30T10:47:40.154Z,78368.00
2019-04-30T10:48:40.153Z,80800.00
2019-04-30T10:51:26.226Z,81824.00
2019-04-30T10:52:26.222Z,80064.00
2019-04-30T10:53:26.223Z,76864.00
2019-04-30T10:56:44.493Z,72512.00
2019-04-30T10:59:29.550Z,83456.00
2019-04-30T11:02:14.609Z,84288.00
2019-04-30T11:04:59.719Z,84384.00
2019-04-30T12:55:33.917Z,6572.00
2019-04-30T12:58:01.621Z,6636.00
2019-04-30T12:59:32.895Z,6620.00
2019-04-30T13:00:00.444Z,6824.00
2019-04-30T13:00:59.656Z,7112.00
2019-04-30T13:01:59.644Z,7328.00
2019-04-30T13:02:59.624Z,7572.00
2019-04-30T13:04:01.354Z,7876.00
2019-04-30T13:05:00.495Z,7660.00
2019-04-30T13:06:01.185Z,7084.00
2019-04-30T13:07:02.107Z,6792.00
2019-04-30T13:08:00.591Z,6800.00
2019-04-30T13:09:00.612Z,6776.00
2019-04-30T13:10:01.366Z,6668.00
2019-04-30T13:10:59.962Z,6504.00
2019-04-30T13:12:00.850Z,6424.00
2019-04-30T13:12:59.934Z,6372.00
2019-04-30T13:14:00.267Z,6348.00
2019-04-30T13:14:59.465Z,6372.00
2019-04-30T13:16:00.051Z,6284.00
2019-04-30T13:16:59.429Z,6184.00
2019-04-30T13:17:59.418Z,6096.00
2019-04-30T13:18:59.495Z,6028.00
2019-04-30T13:19:59.379Z,6072.00
2019-04-30T13:20:59.494Z,6012.00
2019-04-30T13:21:59.358Z,6064.00
2019-04-30T13:22:59.340Z,6104.00
2019-04-30T13:23:59.319Z,5920.00
2019-04-30T13:24:59.772Z,5900.00
2019-04-30T13:26:00.993Z,5956.00
2019-04-30T13:26:59.601Z,5912.00
2019-04-30T13:27:59.269Z,5696.00
2019-04-30T13:28:59.245Z,5592.00
2019-04-30T13:29:59.237Z,5548.00
2019-04-30T13:30:59.347Z,5504.00
2019-04-30T13:31:59.202Z,5392.00
2019-04-30T13:32:59.393Z,4732.00
2019-04-30T13:34:01.603Z,4604.00
2019-04-30T13:35:00.988Z,4952.00
2019-04-30T13:35:59.143Z,5488.00
2019-04-30T13:36:59.436Z,5776.00
2019-04-30T13:37:59.114Z,6320.00
2019-04-30T13:38:59.463Z,6264.00
2019-04-30T13:39:59.081Z,6064.00
2019-04-30T13:40:59.071Z,5832.00
2019-04-30T13:41:59.275Z,5716.00
2019-04-30T13:42:59.037Z,5684.00
2019-04-30T13:43:59.023Z,5756.00
2019-04-30T13:44:59.010Z,5676.00
2019-04-30T13:45:59.000Z,5156.00
2019-04-30T13:46:58.976Z,4828.00
2019-04-30T13:47:59.012Z,4616.00
2019-04-30T13:48:58.953Z,4604.00
2019-04-30T13:49:59.452Z,5060.00
2019-04-30T13:50:58.917Z,5128.00
2019-04-30T13:51:58.908Z,5252.00
2019-04-30T13:52:58.926Z,5276.00
2019-04-30T13:53:58.882Z,5340.00
2019-04-30T13:54:58.854Z,5304.00
2019-04-30T13:55:58.979Z,5320.00
2019-04-30T13:56:59.174Z,5320.00
2019-04-30T13:57:58.822Z,5284.00
2019-04-30T13:58:58.794Z,5244.00
2019-04-30T14:00:42.911Z,5092.00
2019-04-30T14:01:42.888Z,5036.00
2019-04-30T14:02:44.804Z,5020.00
2019-04-30T14:03:42.863Z,5004.00
2019-04-30T14:05:16.049Z,4924.00
2019-04-30T14:06:16.046Z,4864.00
2019-04-30T14:06:42.811Z,4768.00
2019-04-30T14:07:42.792Z,4668.00
2019-04-30T14:08:42.780Z,4664.00
2019-04-30T14:09:42.766Z,4712.00
2019-04-30T14:10:42.755Z,4704.00
2019-04-30T14:11:42.753Z,4684.00
2019-04-30T14:12:42.715Z,4680.00
2019-04-30T14:13:42.702Z,4664.00
2019-04-30T14:14:42.690Z,4672.00
2019-04-30T14:15:42.679Z,4820.00
2019-04-30T14:16:43.939Z,4892.00
2019-04-30T14:17:42.637Z,4860.00
2019-04-30T14:18:42.630Z,4884.00
2019-04-30T14:20:15.817Z,5012.00
2019-04-30T14:20:42.592Z,5044.00
2019-04-30T14:21:42.578Z,4888.00
2019-04-30T14:22:42.566Z,4708.00
2019-04-30T14:23:42.552Z,4676.00
2019-04-30T14:24:42.541Z,4716.00